Briefing drone pour Saint-alban-leysse

Rechercher une autre localisation

Conditions de vol :


Nous sommes le : Vendredi 25 juin 2021
Il est 23:57 UTC (01:57 LT)

Lever de soleil : 03:22 UTC (05:22 LT)
Coucher de soleil : 19:55 UTC (21:55 LT)

Météo

L'essentiel des conditions de vol

VIGILANCE MÉTÉO FRANCE - Savoie (73)
Vigilance Jaune : Orages
CARTE TEMSI
CARTES DES FRONTS
METAR de LFLB
LFLB 242330Z AUTO VRB02KT 9999 FEW062 OVC074 15/15 Q1023

Date d'émission: 24/06/2021
Heure d'émission: 23:30 UTC
Vent: Variable 2 KT (4 km/h)
Visibilité horizontale: > 10 km
Plafond :
- Peu de nuages à 6200ft (1890m)
- Couvert à 7400ft (2256m)
Température: 15 °C
Point de rosée: 15 °C
Humidité: 100%
Pression (QNH): 1023 hPa
TAF de LFLB
LFLB 241904Z 2419/2515 CNL

Conditions prévues :

Heure d'émission : Bulletin éffectué le 24 à 19:00 UTC
Prévision : Valide du 24 a 19:00 UTC au 25 a 15:00 UTC
Nuages : à 0ft (0 m)
WEBCAM POUR SAINT-ALBAN-LEYSSE

Réglementation

Voler en sécurité

CARTES AERONAUTIQUE 1/500.000
CARTE AZBA (Reseau basse altitude)
CARTES VAC (LFLB)
SUP AIP




Chargement des AIP...
NOTAM (SAINT-ALBAN-LEYSSE + Terrain à proximité / FIR )




Chargement des NOTAMS...
CONTACT PREFECTURE 73


Avertissement : Les données mises à disposition sont indicatives. Oxygène Drone ne pourra être tenu responsable de dégâts causés aux biens et aux personnes.